Time;durP1;ratioP1;P1;durP2;ratioP2;P2;SDS_P1;SDS_P2;PMS_P1;PMS_P2;Temp;Humidity;BMP_temperature;BMP_pressure;BME280_temperature;BME280_humidity;BME280_pressure;Samples;Min_cycle;Max_cycle;Signal;HPM_P1;HPM_P2
2021/11/18 00:01:17;;;;;;;12.02;6.72;;;;;;;;;;5064301;28;20336;-79
2021/11/18 00:03:44;;;;;;;11.85;7.40;;;;;;;;;;5066230;28;20202;-77
2021/11/18 00:06:11;;;;;;;12.48;6.88;;;;;;;;;;5074073;28;20209;-77
2021/11/18 00:08:39;;;;;;;10.85;7.70;;;;;;;;;;5070379;28;20199;-78
2021/11/18 00:11:09;;;;;;;14.25;6.97;;;;;;;;;;5061923;28;20202;-78
2021/11/18 00:13:37;;;;;;;12.93;7.18;;;;;;;;;;5064343;28;20202;-78
2021/11/18 00:16:05;;;;;;;12.45;6.25;;;;;;;;;;5073622;28;20194;-78
2021/11/18 00:18:33;;;;;;;11.10;7.22;;;;;;;;;;5059649;28;20677;-78
2021/11/18 00:21:01;;;;;;;9.90;6.93;;;;;;;;;;5057814;28;20209;-77
2021/11/18 00:23:29;;;;;;;12.77;8.90;;;;;;;;;;5073042;28;20204;-78
2021/11/18 00:25:57;;;;;;;13.05;7.38;;;;;;;;;;5060577;28;20226;-78
2021/11/18 00:28:26;;;;;;;15.32;7.38;;;;;;;;;;5059477;28;20195;-78
2021/11/18 00:30:53;;;;;;;10.27;6.70;;;;;;;;;;5065816;28;20199;-78
2021/11/18 00:33:20;;;;;;;11.38;6.85;;;;;;;;;;5054845;28;20204;-78
2021/11/18 00:35:48;;;;;;;10.93;7.13;;;;;;;;;;5064066;28;20190;-78
2021/11/18 00:38:15;;;;;;;12.43;8.57;;;;;;;;;;5056243;28;20209;-77
2021/11/18 00:40:44;;;;;;;8.65;6.00;;;;;;;;;;5061807;28;20206;-78
2021/11/18 00:43:12;;;;;;;6.93;5.30;;;;;;;;;;5054873;28;20207;-78
2021/11/18 00:45:42;;;;;;;16.23;6.50;;;;;;;;;;5070073;28;20332;-78
2021/11/18 00:48:09;;;;;;;11.00;6.80;;;;;;;;;;5070347;28;20199;-78
2021/11/18 00:50:38;;;;;;;11.85;6.75;;;;;;;;;;5062552;28;20199;-78
2021/11/18 00:53:05;;;;;;;11.23;7.13;;;;;;;;;;5058969;28;20198;-77
2021/11/18 00:55:33;;;;;;;8.75;6.25;;;;;;;;;;5062316;28;20587;-78
2021/11/18 00:58:00;;;;;;;7.55;5.55;;;;;;;;;;5070139;28;20210;-78
2021/11/18 01:00:29;;;;;;;7.30;5.68;;;;;;;;;;5073808;28;20708;-78
2021/11/18 01:02:58;;;;;;;8.88;5.63;;;;;;;;;;5061648;28;20206;-78
2021/11/18 01:05:27;;;;;;;13.88;5.70;;;;;;;;;;5053772;28;20608;-77
2021/11/18 01:07:55;;;;;;;16.40;5.60;;;;;;;;;;5054101;28;20203;-78
2021/11/18 01:10:22;;;;;;;7.25;6.13;;;;;;;;;;5068256;28;20198;-78
2021/11/18 01:12:49;;;;;;;11.18;6.10;;;;;;;;;;5071596;28;20194;-78
2021/11/18 01:15:19;;;;;;;7.47;6.35;;;;;;;;;;5072218;28;20202;-78
2021/11/18 01:17:46;;;;;;;7.57;5.28;;;;;;;;;;5063507;28;20195;-78
2021/11/18 01:20:16;;;;;;;6.60;5.20;;;;;;;;;;5065544;28;20201;-78
2021/11/18 01:22:43;;;;;;;10.20;6.43;;;;;;;;;;5054127;28;20198;-78
2021/11/18 01:25:11;;;;;;;9.07;6.13;;;;;;;;;;5063546;28;20214;-77
2021/11/18 01:27:38;;;;;;;7.30;4.95;;;;;;;;;;5056469;28;20221;-78
2021/11/18 01:30:08;;;;;;;7.40;5.22;;;;;;;;;;5061813;28;20222;-78
2021/11/18 01:32:35;;;;;;;10.32;5.72;;;;;;;;;;5063904;28;20206;-78
2021/11/18 01:35:02;;;;;;;12.15;6.35;;;;;;;;;;5053054;28;20550;-78
2021/11/18 01:37:30;;;;;;;11.10;6.20;;;;;;;;;;5066639;28;20683;-78
2021/11/18 01:39:58;;;;;;;10.25;5.60;;;;;;;;;;5061080;28;20564;-78
2021/11/18 01:42:25;;;;;;;13.00;6.28;;;;;;;;;;5073047;28;20194;-78
2021/11/18 01:44:53;;;;;;;12.38;5.72;;;;;;;;;;5066869;28;20206;-78
2021/11/18 01:47:21;;;;;;;9.65;5.60;;;;;;;;;;5060845;28;20622;-78
2021/11/18 01:49:49;;;;;;;7.95;5.82;;;;;;;;;;5067438;28;20199;-78
2021/11/18 01:52:19;;;;;;;10.45;5.18;;;;;;;;;;5064163;28;20202;-78
2021/11/18 01:54:50;;;;;;;11.20;6.95;;;;;;;;;;5067030;28;20198;-78
2021/11/18 01:57:20;;;;;;;11.55;6.13;;;;;;;;;;5070574;28;20198;-78
2021/11/18 01:59:48;;;;;;;8.68;5.40;;;;;;;;;;5065844;28;20309;-78
2021/11/18 02:02:15;;;;;;;16.42;6.07;;;;;;;;;;5056823;28;20199;-78
2021/11/18 02:04:48;;;;;;;9.25;5.10;;;;;;;;;;5064128;28;20209;-78
2021/11/18 02:07:15;;;;;;;10.85;6.30;;;;;;;;;;5072951;28;20210;-78
2021/11/18 02:09:43;;;;;;;7.80;5.13;;;;;;;;;;5056601;28;20205;-78
2021/11/18 02:12:13;;;;;;;7.93;5.40;;;;;;;;;;5054241;28;20205;-77
2021/11/18 02:14:40;;;;;;;10.88;6.30;;;;;;;;;;5060441;28;20202;-77
2021/11/18 02:17:08;;;;;;;11.68;5.95;;;;;;;;;;5071169;28;20194;-78
2021/11/18 02:19:36;;;;;;;10.02;5.38;;;;;;;;;;5055924;28;20198;-78
2021/11/18 02:22:05;;;;;;;11.07;4.95;;;;;;;;;;5070176;28;20198;-78
2021/11/18 02:24:34;;;;;;;9.48;6.20;;;;;;;;;;5065783;28;20201;-78
2021/11/18 02:27:01;;;;;;;8.75;4.93;;;;;;;;;;5072545;28;20218;-78
2021/11/18 02:29:28;;;;;;;9.30;5.30;;;;;;;;;;5069318;28;20558;-79
2021/11/18 02:31:57;;;;;;;6.95;4.90;;;;;;;;;;5062933;28;20673;-78
2021/11/18 02:34:28;;;;;;;12.40;4.97;;;;;;;;;;5062873;28;20191;-78
2021/11/18 02:36:55;;;;;;;7.47;5.32;;;;;;;;;;5061305;28;20198;-78
2021/11/18 02:39:23;;;;;;;9.68;5.50;;;;;;;;;;5068264;28;20205;-77
2021/11/18 02:41:51;;;;;;;9.82;5.13;;;;;;;;;;5065528;28;20207;-76
2021/11/18 02:44:18;;;;;;;9.82;5.10;;;;;;;;;;5070513;28;20195;-77
2021/11/18 02:46:45;;;;;;;12.65;5.80;;;;;;;;;;5056664;28;20309;-77
2021/11/18 02:49:12;;;;;;;10.55;5.32;;;;;;;;;;5060956;28;20194;-78
2021/11/18 02:51:39;;;;;;;9.98;6.22;;;;;;;;;;5067289;28;20194;-78
2021/11/18 02:54:07;;;;;;;9.00;5.43;;;;;;;;;;5063510;28;20218;-77
2021/11/18 02:56:35;;;;;;;10.07;6.88;;;;;;;;;;5065839;28;20214;-77
2021/11/18 02:59:02;;;;;;;7.55;5.45;;;;;;;;;;5072133;28;20700;-78
2021/11/18 03:01:31;;;;;;;7.88;5.22;;;;;;;;;;5076505;28;20197;-78
2021/11/18 03:03:59;;;;;;;13.65;6.93;;;;;;;;;;5064342;28;20293;-78
2021/11/18 03:06:27;;;;;;;10.48;5.80;;;;;;;;;;5071863;28;20225;-77
2021/11/18 03:08:54;;;;;;;7.55;5.75;;;;;;;;;;5061071;28;20202;-78
2021/11/18 03:11:22;;;;;;;10.18;5.40;;;;;;;;;;5069552;28;20209;-78
2021/11/18 03:13:51;;;;;;;10.05;5.78;;;;;;;;;;5062399;28;20222;-78
2021/11/18 03:16:18;;;;;;;12.38;6.45;;;;;;;;;;5051704;28;20199;-78
2021/11/18 03:18:45;;;;;;;11.55;5.88;;;;;;;;;;5057502;28;20209;-77
2021/11/18 03:21:14;;;;;;;10.20;5.47;;;;;;;;;;5063884;28;20217;-78
2021/11/18 03:23:41;;;;;;;16.17;5.43;;;;;;;;;;5064794;28;20199;-77
2021/11/18 03:26:09;;;;;;;5.40;4.40;;;;;;;;;;5071784;28;20195;-77
2021/11/18 03:28:36;;;;;;;7.10;5.57;;;;;;;;;;5069090;28;20236;-77
2021/11/18 03:31:05;;;;;;;9.35;5.80;;;;;;;;;;5054763;28;20198;-78
2021/11/18 03:33:33;;;;;;;11.70;5.07;;;;;;;;;;5052650;28;20206;-77
2021/11/18 03:36:00;;;;;;;9.77;5.55;;;;;;;;;;5067085;28;20205;-77
2021/11/18 03:38:29;;;;;;;9.88;5.53;;;;;;;;;;5061777;28;20240;-77
2021/11/18 03:41:03;;;;;;;8.25;5.28;;;;;;;;;;5060590;28;20195;-77
2021/11/18 03:43:30;;;;;;;8.43;5.53;;;;;;;;;;5064015;28;20208;-77
2021/11/18 03:45:57;;;;;;;13.80;6.40;;;;;;;;;;5051580;28;20666;-78
2021/11/18 03:48:29;;;;;;;7.28;5.55;;;;;;;;;;5055687;28;20222;-81
2021/11/18 03:50:56;;;;;;;7.78;5.82;;;;;;;;;;5073623;28;20653;-81
2021/11/18 03:53:23;;;;;;;10.30;5.53;;;;;;;;;;5060813;28;20195;-76
2021/11/18 03:55:50;;;;;;;7.90;5.85;;;;;;;;;;5059615;28;20241;-77
2021/11/18 03:58:17;;;;;;;6.90;5.28;;;;;;;;;;5056309;28;20202;-78
2021/11/18 04:00:45;;;;;;;6.75;5.38;;;;;;;;;;5058536;28;20222;-78
2021/11/18 04:03:13;;;;;;;10.18;7.30;;;;;;;;;;5051595;28;20190;-78
2021/11/18 04:05:42;;;;;;;6.32;5.05;;;;;;;;;;5062409;28;20629;-77
2021/11/18 04:08:10;;;;;;;7.93;4.97;;;;;;;;;;5065611;28;20222;-78
2021/11/18 04:10:38;;;;;;;14.77;7.82;;;;;;;;;;5054642;28;20210;-77
2021/11/18 04:13:05;;;;;;;9.35;4.63;;;;;;;;;;5059737;28;20207;-78
2021/11/18 04:15:32;;;;;;;9.98;6.60;;;;;;;;;;5052322;28;20592;-78
2021/11/18 04:17:59;;;;;;;9.10;5.47;;;;;;;;;;5053460;28;20205;-77
2021/11/18 04:20:27;;;;;;;12.68;7.03;;;;;;;;;;5055887;28;20211;-78
2021/11/18 04:22:56;;;;;;;11.45;6.53;;;;;;;;;;5067606;28;20696;-78
2021/11/18 04:25:26;;;;;;;8.52;5.70;;;;;;;;;;5061595;28;20546;-77
2021/11/18 04:27:53;;;;;;;10.02;5.47;;;;;;;;;;5062536;28;20666;-77
2021/11/18 04:30:23;;;;;;;13.05;6.95;;;;;;;;;;5057631;28;20199;-77
2021/11/18 04:32:50;;;;;;;8.98;5.88;;;;;;;;;;5057132;28;20680;-77
2021/11/18 04:35:18;;;;;;;10.05;6.70;;;;;;;;;;5067861;28;20190;-77
2021/11/18 04:37:45;;;;;;;8.43;6.75;;;;;;;;;;5063825;28;20202;-78
2021/11/18 04:40:14;;;;;;;11.15;6.93;;;;;;;;;;5056128;28;20199;-77
2021/11/18 04:42:42;;;;;;;8.65;6.28;;;;;;;;;;5053352;28;20206;-78
2021/11/18 04:45:10;;;;;;;10.13;6.55;;;;;;;;;;5056690;28;20321;-77
2021/11/18 04:47:38;;;;;;;9.77;6.93;;;;;;;;;;5062576;28;20697;-78
2021/11/18 04:50:06;;;;;;;9.10;5.85;;;;;;;;;;5068458;28;20201;-78
2021/11/18 04:52:33;;;;;;;13.93;7.00;;;;;;;;;;5068386;28;20642;-77
2021/11/18 04:55:00;;;;;;;7.78;5.53;;;;;;;;;;5059489;28;20199;-77
2021/11/18 04:57:29;;;;;;;20.30;8.10;;;;;;;;;;5070442;28;20202;-78
2021/11/18 04:59:56;;;;;;;13.60;6.07;;;;;;;;;;5068335;28;20242;-78
2021/11/18 05:02:24;;;;;;;10.65;7.07;;;;;;;;;;5060895;28;20195;-77
2021/11/18 05:04:52;;;;;;;8.07;5.70;;;;;;;;;;5054364;28;20207;-78
2021/11/18 05:07:19;;;;;;;11.02;7.13;;;;;;;;;;5056004;28;20206;-78
2021/11/18 05:09:47;;;;;;;12.07;6.82;;;;;;;;;;5061467;28;20588;-78
2021/11/18 05:12:14;;;;;;;12.05;7.18;;;;;;;;;;5064792;28;20644;-78
2021/11/18 05:14:42;;;;;;;11.35;6.70;;;;;;;;;;5068467;28;20568;-78
2021/11/18 05:17:09;;;;;;;10.68;6.25;;;;;;;;;;5065737;28;20620;-78
2021/11/18 05:19:37;;;;;;;11.93;6.55;;;;;;;;;;5062461;28;20650;-77
2021/11/18 05:22:04;;;;;;;13.05;6.95;;;;;;;;;;5068524;28;20553;-77
2021/11/18 05:24:31;;;;;;;12.27;6.78;;;;;;;;;;5072181;28;20198;-77
2021/11/18 05:26:58;;;;;;;13.38;7.65;;;;;;;;;;5060445;28;20547;-78
2021/11/18 05:29:25;;;;;;;12.20;6.57;;;;;;;;;;5067704;28;20206;-78
2021/11/18 05:31:54;;;;;;;14.82;7.25;;;;;;;;;;5071236;28;20225;-78
2021/11/18 05:34:21;;;;;;;14.30;6.80;;;;;;;;;;5069142;28;20198;-78
2021/11/18 05:36:48;;;;;;;8.55;5.60;;;;;;;;;;5057033;28;20566;-78
2021/11/18 05:39:15;;;;;;;9.43;5.50;;;;;;;;;;5066334;28;20217;-79
2021/11/18 05:41:42;;;;;;;9.48;6.75;;;;;;;;;;5070632;28;20564;-78
2021/11/18 05:44:09;;;;;;;9.60;7.78;;;;;;;;;;5071452;28;20206;-78
2021/11/18 05:46:37;;;;;;;11.75;6.28;;;;;;;;;;5072269;28;20276;-78
2021/11/18 05:49:06;;;;;;;9.95;6.65;;;;;;;;;;5064732;28;20237;-77
2021/11/18 05:51:33;;;;;;;17.45;7.90;;;;;;;;;;5062193;28;20210;-77
2021/11/18 05:54:00;;;;;;;10.07;6.07;;;;;;;;;;5059541;28;20195;-78
2021/11/18 05:56:29;;;;;;;9.40;7.30;;;;;;;;;;5052700;28;20646;-77
2021/11/18 05:58:56;;;;;;;7.70;6.78;;;;;;;;;;5053230;28;20569;-78
2021/11/18 06:01:26;;;;;;;9.40;7.28;;;;;;;;;;5060664;28;20535;-77
2021/11/18 06:03:54;;;;;;;10.65;6.65;;;;;;;;;;5070352;28;20649;-77
2021/11/18 06:06:23;;;;;;;14.63;6.50;;;;;;;;;;5065555;28;20739;-78
2021/11/18 06:08:50;;;;;;;13.82;6.22;;;;;;;;;;5055767;28;20223;-77
2021/11/18 06:11:17;;;;;;;9.90;6.25;;;;;;;;;;5056427;28;20207;-77
2021/11/18 06:13:48;;;;;;;13.20;7.65;;;;;;;;;;5064166;28;20205;-77
2021/11/18 06:16:15;;;;;;;10.55;6.22;;;;;;;;;;5063831;28;20646;-77
2021/11/18 06:18:42;;;;;;;13.05;6.72;;;;;;;;;;5069799;28;20685;-78
2021/11/18 06:21:09;;;;;;;10.43;7.15;;;;;;;;;;5052955;28;20194;-78
2021/11/18 06:23:37;;;;;;;10.93;6.78;;;;;;;;;;5055760;28;20218;-78
2021/11/18 06:26:05;;;;;;;10.57;6.43;;;;;;;;;;5064138;28;20194;-78
2021/11/18 06:28:32;;;;;;;9.68;5.55;;;;;;;;;;5055601;28;20227;-77
2021/11/18 06:31:04;;;;;;;12.90;6.60;;;;;;;;;;5056129;28;20194;-77
2021/11/18 06:33:32;;;;;;;11.43;6.95;;;;;;;;;;5067150;28;20190;-77
2021/11/18 06:35:59;;;;;;;12.00;6.50;;;;;;;;;;5068588;28;20632;-77
2021/11/18 06:38:26;;;;;;;13.90;6.97;;;;;;;;;;5068369;28;20684;-77
2021/11/18 06:40:55;;;;;;;11.27;5.88;;;;;;;;;;5060815;28;20206;-77
2021/11/18 06:43:22;;;;;;;14.48;7.00;;;;;;;;;;5063044;28;20683;-77
2021/11/18 06:45:49;;;;;;;9.73;7.05;;;;;;;;;;5058243;28;20250;-77
2021/11/18 06:48:17;;;;;;;17.67;6.82;;;;;;;;;;5062527;28;20728;-78
2021/11/18 06:50:44;;;;;;;18.08;8.23;;;;;;;;;;5061737;28;20195;-78
2021/11/18 06:53:11;;;;;;;13.93;7.10;;;;;;;;;;5067385;28;20625;-77
2021/11/18 06:55:38;;;;;;;13.15;7.45;;;;;;;;;;5051458;28;20195;-77
2021/11/18 06:58:07;;;;;;;10.20;6.72;;;;;;;;;;5062766;28;20264;-78
2021/11/18 07:00:34;;;;;;;18.05;7.40;;;;;;;;;;5060251;28;20581;-77
2021/11/18 07:03:01;;;;;;;13.80;6.25;;;;;;;;;;5064578;28;20194;-77
2021/11/18 07:05:28;;;;;;;14.25;7.03;;;;;;;;;;5051483;28;20205;-77
2021/11/18 07:07:55;;;;;;;15.75;7.63;;;;;;;;;;5050671;28;20207;-77
2021/11/18 07:10:22;;;;;;;10.70;6.35;;;;;;;;;;5049246;28;20203;-77
2021/11/18 07:12:52;;;;;;;13.30;7.07;;;;;;;;;;5052658;28;20697;-78
2021/11/18 07:15:20;;;;;;;11.07;7.28;;;;;;;;;;5063279;28;20285;-77
2021/11/18 07:17:47;;;;;;;11.88;6.40;;;;;;;;;;5065022;28;20221;-77
2021/11/18 07:20:15;;;;;;;11.40;6.10;;;;;;;;;;5051527;28;20230;-77
2021/11/18 07:22:42;;;;;;;13.68;7.28;;;;;;;;;;5056341;28;20668;-78
2021/11/18 07:25:11;;;;;;;9.85;6.40;;;;;;;;;;5054318;28;20197;-77
2021/11/18 07:27:38;;;;;;;13.57;7.30;;;;;;;;;;5054609;28;20252;-78
2021/11/18 07:30:06;;;;;;;13.93;7.00;;;;;;;;;;5053683;28;20714;-78
2021/11/18 07:32:34;;;;;;;14.35;5.80;;;;;;;;;;5056504;28;20783;-77
2021/11/18 07:35:02;;;;;;;10.13;6.15;;;;;;;;;;5057778;28;20740;-77
2021/11/18 07:37:29;;;;;;;14.68;6.43;;;;;;;;;;5057555;28;20603;-78
2021/11/18 07:39:56;;;;;;;12.32;6.47;;;;;;;;;;5062904;28;20194;-78
2021/11/18 07:42:23;;;;;;;11.13;7.13;;;;;;;;;;5057681;28;20206;-78
2021/11/18 07:44:50;;;;;;;17.23;6.80;;;;;;;;;;5057289;28;20199;-78
2021/11/18 07:47:17;;;;;;;15.38;6.25;;;;;;;;;;5060312;28;20209;-78
2021/11/18 07:49:46;;;;;;;19.42;9.45;;;;;;;;;;5062329;28;20240;-78
2021/11/18 07:52:13;;;;;;;13.25;7.30;;;;;;;;;;5066722;28;20691;-78
2021/11/18 07:54:40;;;;;;;13.98;7.43;;;;;;;;;;5054843;28;20206;-77
2021/11/18 07:57:07;;;;;;;11.05;6.50;;;;;;;;;;5062479;28;20209;-78
2021/11/18 07:59:34;;;;;;;13.30;7.78;;;;;;;;;;5060639;28;20210;-78
2021/11/18 08:02:01;;;;;;;15.65;7.50;;;;;;;;;;5067703;28;20538;-77
2021/11/18 08:04:28;;;;;;;15.35;7.72;;;;;;;;;;5060212;28;20202;-77
2021/11/18 08:06:59;;;;;;;14.77;8.02;;;;;;;;;;5052600;28;20209;-76
2021/11/18 08:09:26;;;;;;;14.20;7.47;;;;;;;;;;5063925;28;20394;-77
2021/11/18 08:11:56;;;;;;;13.55;7.40;;;;;;;;;;5052799;28;20206;-77
2021/11/18 08:14:24;;;;;;;13.05;7.55;;;;;;;;;;5055893;28;20213;-76
2021/11/18 08:16:51;;;;;;;13.70;7.85;;;;;;;;;;5052133;28;20664;-77
2021/11/18 08:19:18;;;;;;;17.75;7.15;;;;;;;;;;5053175;28;20659;-77
2021/11/18 08:21:46;;;;;;;15.07;8.70;;;;;;;;;;5055797;28;20195;-75
2021/11/18 08:24:15;;;;;;;15.23;8.30;;;;;;;;;;5058593;28;20202;-75
2021/11/18 08:26:43;;;;;;;10.82;8.10;;;;;;;;;;5056313;28;20981;-77
2021/11/18 08:29:11;;;;;;;15.13;8.32;;;;;;;;;;5057913;28;20218;-75
2021/11/18 08:31:39;;;;;;;20.67;9.35;;;;;;;;;;5055131;28;20187;-78
2021/11/18 08:34:06;;;;;;;16.38;8.82;;;;;;;;;;5054725;28;20190;-76
2021/11/18 08:36:37;;;;;;;13.18;8.57;;;;;;;;;;5058008;28;20197;-75
2021/11/18 08:39:05;;;;;;;13.20;7.80;;;;;;;;;;5059470;28;20611;-77
2021/11/18 08:41:33;;;;;;;16.55;8.60;;;;;;;;;;5057796;28;20675;-75
2021/11/18 08:44:01;;;;;;;14.02;8.18;;;;;;;;;;5058231;28;20209;-78
2021/11/18 08:46:29;;;;;;;16.85;8.98;;;;;;;;;;5057028;28;20195;-77
2021/11/18 08:49:00;;;;;;;12.40;7.68;;;;;;;;;;5061576;28;20207;-76
2021/11/18 08:51:28;;;;;;;13.50;8.48;;;;;;;;;;5055292;28;20286;-77
2021/11/18 08:53:56;;;;;;;14.77;8.15;;;;;;;;;;5057310;28;20651;-76
2021/11/18 08:56:24;;;;;;;11.45;6.70;;;;;;;;;;5060492;28;20194;-77
2021/11/18 08:58:55;;;;;;;11.38;8.13;;;;;;;;;;5057879;28;20190;-77
2021/11/18 09:01:24;;;;;;;14.50;7.88;;;;;;;;;;5060071;28;20206;-77
2021/11/18 09:03:52;;;;;;;12.45;7.30;;;;;;;;;;5056536;28;20202;-78
2021/11/18 09:06:20;;;;;;;14.45;8.27;;;;;;;;;;5064976;28;20187;-77
2021/11/18 09:08:47;;;;;;;17.95;10.60;;;;;;;;;;5070592;28;20218;-77
2021/11/18 09:11:15;;;;;;;12.43;8.13;;;;;;;;;;5064022;28;20198;-78
2021/11/18 09:13:43;;;;;;;16.10;7.57;;;;;;;;;;5056327;28;20664;-77
2021/11/18 09:16:12;;;;;;;17.33;7.90;;;;;;;;;;5051611;28;20265;-78
2021/11/18 09:18:42;;;;;;;10.45;7.63;;;;;;;;;;5057494;28;20191;-77
2021/11/18 09:21:10;;;;;;;10.82;7.93;;;;;;;;;;5056548;28;20198;-77
2021/11/18 09:23:39;;;;;;;14.98;8.10;;;;;;;;;;5054457;28;20191;-77
2021/11/18 09:26:08;;;;;;;14.45;8.30;;;;;;;;;;5066312;28;20195;-75
2021/11/18 09:28:35;;;;;;;14.45;7.35;;;;;;;;;;5058953;28;20215;-76
2021/11/18 09:31:04;;;;;;;15.65;7.85;;;;;;;;;;5064229;28;20203;-76
2021/11/18 09:33:33;;;;;;;16.02;8.70;;;;;;;;;;5059873;28;20208;-77
2021/11/18 09:36:01;;;;;;;13.85;7.90;;;;;;;;;;5059305;28;20542;-77
2021/11/18 09:38:29;;;;;;;13.55;7.00;;;;;;;;;;5061631;28;20194;-78
2021/11/18 09:40:57;;;;;;;15.77;7.55;;;;;;;;;;5060555;28;20542;-78
2021/11/18 09:43:50;;;;;;;18.15;8.95;;;;;;;;;;5070048;28;20194;-78
2021/11/18 09:46:25;;;;;;;16.95;7.95;;;;;;;;;;5059049;28;20673;-77
2021/11/18 09:49:04;;;;;;;18.20;8.35;;;;;;;;;;5059039;28;20198;-77
2021/11/18 09:51:48;;;;;;;9.68;6.90;;;;;;;;;;5066913;28;20194;-77
2021/11/18 09:54:31;;;;;;;17.15;7.20;;;;;;;;;;5070029;28;20217;-77
2021/11/18 09:57:10;;;;;;;16.98;8.82;;;;;;;;;;5064971;28;20206;-77
2021/11/18 09:59:43;;;;;;;20.17;10.07;;;;;;;;;;5067508;28;20220;-77
2021/11/18 10:02:25;;;;;;;11.23;6.90;;;;;;;;;;5058083;28;20203;-78
2021/11/18 10:04:54;;;;;;;14.75;8.57;;;;;;;;;;5056081;28;20662;-78
2021/11/18 10:07:23;;;;;;;14.45;6.82;;;;;;;;;;5060246;28;20198;-78
2021/11/18 10:09:58;;;;;;;14.57;7.00;;;;;;;;;;5053088;28;20225;-78
2021/11/18 10:12:30;;;;;;;14.77;7.45;;;;;;;;;;5061227;28;20561;-77
2021/11/18 10:14:58;;;;;;;15.63;7.57;;;;;;;;;;5072088;28;20209;-78
2021/11/18 10:17:29;;;;;;;10.82;6.30;;;;;;;;;;5058195;28;20225;-78
2021/11/18 10:20:01;;;;;;;12.98;6.68;;;;;;;;;;5066198;28;20202;-78
2021/11/18 10:22:30;;;;;;;13.65;6.28;;;;;;;;;;5062213;28;20210;-78
2021/11/18 10:24:58;;;;;;;15.93;7.28;;;;;;;;;;5059359;28;20209;-78
2021/11/18 10:27:27;;;;;;;12.48;7.85;;;;;;;;;;5051337;28;20206;-78
2021/11/18 10:30:12;;;;;;;10.25;6.70;;;;;;;;;;5056134;28;20581;-78
2021/11/18 10:32:57;;;;;;;10.00;6.15;;;;;;;;;;5056610;28;20195;-78
2021/11/18 10:35:31;;;;;;;13.85;6.95;;;;;;;;;;5050334;28;20217;-77
2021/11/18 10:38:13;;;;;;;12.27;6.35;;;;;;;;;;5053668;28;20195;-78
2021/11/18 10:40:50;;;;;;;10.13;5.97;;;;;;;;;;5065789;28;20194;-78
2021/11/18 10:43:17;;;;;;;12.98;6.75;;;;;;;;;;5062472;28;20194;-78
2021/11/18 10:45:45;;;;;;;13.85;7.22;;;;;;;;;;5071482;28;20209;-77
2021/11/18 10:48:17;;;;;;;13.65;7.65;;;;;;;;;;5051597;28;20198;-77
2021/11/18 10:50:47;;;;;;;12.45;5.97;;;;;;;;;;5061971;28;20217;-78
2021/11/18 10:53:16;;;;;;;18.83;8.13;;;;;;;;;;5067817;28;20198;-78
2021/11/18 10:55:44;;;;;;;14.88;6.40;;;;;;;;;;5058757;28;20636;-78
2021/11/18 10:58:14;;;;;;;13.13;6.50;;;;;;;;;;5057328;28;20658;-78
2021/11/18 11:00:44;;;;;;;12.95;6.53;;;;;;;;;;5065487;28;20211;-78
2021/11/18 11:03:22;;;;;;;17.75;7.07;;;;;;;;;;5064381;28;20650;-77
2021/11/18 11:06:06;;;;;;;8.48;5.82;;;;;;;;;;5057034;28;20213;-78
2021/11/18 11:08:34;;;;;;;13.38;5.50;;;;;;;;;;5050683;28;20207;-78
2021/11/18 11:11:03;;;;;;;12.25;6.47;;;;;;;;;;5051776;28;20717;-78
2021/11/18 11:13:39;;;;;;;12.73;6.25;;;;;;;;;;5056095;28;20201;-77
2021/11/18 11:16:16;;;;;;;16.48;7.25;;;;;;;;;;5058424;28;20202;-75
2021/11/18 11:18:49;;;;;;;16.75;7.97;;;;;;;;;;5055366;28;20584;-78
2021/11/18 11:21:25;;;;;;;11.85;5.97;;;;;;;;;;5053748;28;20591;-77
2021/11/18 11:23:57;;;;;;;9.43;5.95;;;;;;;;;;5055296;28;20202;-77
2021/11/18 11:26:31;;;;;;;12.93;6.13;;;;;;;;;;5059509;28;20664;-78
2021/11/18 11:29:07;;;;;;;11.85;6.75;;;;;;;;;;5059048;28;20206;-77
2021/11/18 11:31:38;;;;;;;14.40;6.35;;;;;;;;;;5068707;28;20202;-78
2021/11/18 11:34:09;;;;;;;9.70;5.78;;;;;;;;;;5060084;28;20673;-78
2021/11/18 11:36:39;;;;;;;14.20;6.72;;;;;;;;;;5068993;28;20536;-78
2021/11/18 11:39:11;;;;;;;11.32;5.95;;;;;;;;;;5053869;28;20195;-77
2021/11/18 11:41:54;;;;;;;9.38;6.25;;;;;;;;;;5055802;28;20554;-79
2021/11/18 11:44:25;;;;;;;9.82;5.82;;;;;;;;;;5063055;28;20225;-78
2021/11/18 11:46:55;;;;;;;18.75;6.38;;;;;;;;;;5060843;28;20693;-77
2021/11/18 11:49:37;;;;;;;11.90;5.10;;;;;;;;;;5054259;28;20265;-78
2021/11/18 11:52:19;;;;;;;8.10;5.35;;;;;;;;;;5053563;28;20198;-77
2021/11/18 11:54:56;;;;;;;12.13;5.45;;;;;;;;;;5049934;28;20201;-79
2021/11/18 11:57:39;;;;;;;12.02;5.90;;;;;;;;;;5052559;28;20640;-77
2021/11/18 12:00:10;;;;;;;12.35;6.90;;;;;;;;;;5062389;28;20259;-77
2021/11/18 12:02:47;;;;;;;12.15;6.40;;;;;;;;;;5063331;28;20199;-77
2021/11/18 12:05:16;;;;;;;15.95;5.60;;;;;;;;;;5060887;28;20200;-77
2021/11/18 12:07:47;;;;;;;14.88;5.88;;;;;;;;;;5069835;28;20201;-77
2021/11/18 12:10:22;;;;;;;14.63;5.50;;;;;;;;;;5061248;28;20347;-77
2021/11/18 12:12:52;;;;;;;11.70;6.43;;;;;;;;;;5059798;28;20649;-77
2021/11/18 12:15:21;;;;;;;14.77;6.45;;;;;;;;;;5064656;28;20202;-74
2021/11/18 12:17:49;;;;;;;12.98;5.00;;;;;;;;;;5069843;28;20615;-74
2021/11/18 12:20:19;;;;;;;16.02;6.40;;;;;;;;;;5070059;28;20190;-76
2021/11/18 12:22:55;;;;;;;19.00;5.78;;;;;;;;;;5069852;28;20194;-77
2021/11/18 12:25:33;;;;;;;16.65;6.13;;;;;;;;;;5074386;28;20661;-76
2021/11/18 12:28:02;;;;;;;15.30;5.03;;;;;;;;;;5056104;28;20198;-77
2021/11/18 12:30:48;;;;;;;17.05;5.43;;;;;;;;;;5057842;28;20222;-76
2021/11/18 12:33:30;;;;;;;13.90;7.10;;;;;;;;;;5061601;28;20683;-77
2021/11/18 12:36:08;;;;;;;12.50;6.85;;;;;;;;;;5071056;28;20651;-76
2021/11/18 12:38:37;;;;;;;10.98;5.80;;;;;;;;;;5065578;28;20207;-76
2021/11/18 12:41:27;;;;;;;12.38;5.15;;;;;;;;;;5064777;28;20194;-76
2021/11/18 12:44:09;;;;;;;16.45;5.63;;;;;;;;;;5066252;28;20194;-77
2021/11/18 12:46:51;;;;;;;13.20;5.78;;;;;;;;;;5060672;28;20704;-76
2021/11/18 12:49:19;;;;;;;15.25;6.38;;;;;;;;;;5072536;28;20672;-76
2021/11/18 12:52:04;;;;;;;15.65;5.25;;;;;;;;;;5058793;28;20206;-76
2021/11/18 12:54:33;;;;;;;11.60;5.90;;;;;;;;;;5068060;28;20193;-77
2021/11/18 12:57:09;;;;;;;9.93;5.47;;;;;;;;;;5059851;28;20669;-76
2021/11/18 12:59:54;;;;;;;11.23;5.10;;;;;;;;;;5055204;28;20244;-76
2021/11/18 13:02:42;;;;;;;11.18;4.82;;;;;;;;;;5062412;28;20194;-77
2021/11/18 13:05:23;;;;;;;15.13;5.35;;;;;;;;;;5062809;28;20198;-76
2021/11/18 13:07:51;;;;;;;14.10;4.95;;;;;;;;;;5068071;28;20205;-76
2021/11/18 13:10:29;;;;;;;15.27;5.18;;;;;;;;;;5059486;28;20329;-76
2021/11/18 13:13:15;;;;;;;10.02;5.28;;;;;;;;;;5071726;28;20205;-77
2021/11/18 13:15:57;;;;;;;9.02;4.45;;;;;;;;;;5054595;28;20570;-77
2021/11/18 13:18:39;;;;;;;11.35;4.88;;;;;;;;;;5060456;28;20741;-76
2021/11/18 13:21:17;;;;;;;13.90;5.82;;;;;;;;;;5059352;28;20204;-76
2021/11/18 13:23:55;;;;;;;15.10;5.38;;;;;;;;;;5056322;28;20203;-79
2021/11/18 13:26:23;;;;;;;14.82;5.18;;;;;;;;;;5054252;28;20217;-77
2021/11/18 13:29:07;;;;;;;10.68;4.70;;;;;;;;;;5057950;28;20214;-77
2021/11/18 13:31:36;;;;;;;16.95;5.15;;;;;;;;;;5056915;28;20214;-77
2021/11/18 13:34:11;;;;;;;7.75;4.30;;;;;;;;;;5057776;28;20201;-77
2021/11/18 13:36:42;;;;;;;12.30;5.78;;;;;;;;;;5059707;28;20200;-75
2021/11/18 13:39:16;;;;;;;10.85;4.85;;;;;;;;;;5058670;28;20198;-77
2021/11/18 13:41:46;;;;;;;8.32;4.68;;;;;;;;;;5056275;28;20205;-76
2021/11/18 13:44:25;;;;;;;17.13;4.75;;;;;;;;;;5056004;28;20202;-77
2021/11/18 13:46:58;;;;;;;10.23;4.90;;;;;;;;;;5061776;28;20210;-77
2021/11/18 13:49:26;;;;;;;14.13;4.68;;;;;;;;;;5059555;28;20262;-77
2021/11/18 13:51:56;;;;;;;9.02;4.38;;;;;;;;;;5066853;28;20194;-76
2021/11/18 13:54:25;;;;;;;9.95;4.18;;;;;;;;;;5063364;28;20198;-76
2021/11/18 13:56:54;;;;;;;8.50;3.42;;;;;;;;;;5061445;28;20202;-77
2021/11/18 13:59:23;;;;;;;6.70;4.00;;;;;;;;;;5065539;28;20214;-76
2021/11/18 14:01:51;;;;;;;6.95;3.50;;;;;;;;;;5056576;28;20198;-77
2021/11/18 14:04:21;;;;;;;9.07;4.10;;;;;;;;;;5060694;28;20637;-76
2021/11/18 14:06:50;;;;;;;14.23;4.25;;;;;;;;;;5057724;28;20222;-78
2021/11/18 14:09:21;;;;;;;18.15;4.75;;;;;;;;;;5055491;28;20671;-77
2021/11/18 14:11:49;;;;;;;12.77;4.00;;;;;;;;;;5064917;28;20566;-77
2021/11/18 14:14:35;;;;;;;9.15;3.30;;;;;;;;;;5068032;28;20413;-76
2021/11/18 14:17:12;;;;;;;12.07;4.53;;;;;;;;;;5071980;28;20657;-75
2021/11/18 14:19:41;;;;;;;9.13;3.47;;;;;;;;;;5061086;28;20206;-75
2021/11/18 14:22:10;;;;;;;9.35;4.00;;;;;;;;;;5070895;28;20509;-76
2021/11/18 14:24:39;;;;;;;8.50;3.90;;;;;;;;;;5064057;28;20275;-76
2021/11/18 14:27:08;;;;;;;9.23;4.10;;;;;;;;;;5070664;28;20673;-76
2021/11/18 14:29:46;;;;;;;15.05;4.47;;;;;;;;;;5066613;28;20200;-76
2021/11/18 14:32:31;;;;;;;10.00;4.20;;;;;;;;;;5060472;28;20553;-77
2021/11/18 14:35:01;;;;;;;13.68;3.72;;;;;;;;;;5059251;28;20202;-76
2021/11/18 14:37:39;;;;;;;11.80;3.97;;;;;;;;;;5063444;28;20198;-76
2021/11/18 14:40:09;;;;;;;9.90;3.92;;;;;;;;;;5054574;28;20198;-77
2021/11/18 14:42:38;;;;;;;9.50;2.97;;;;;;;;;;5059697;28;20202;-76
2021/11/18 14:45:12;;;;;;;9.15;2.97;;;;;;;;;;5066321;28;20209;-76
2021/11/18 14:47:40;;;;;;;10.27;2.78;;;;;;;;;;5071415;28;20712;-77
2021/11/18 14:50:09;;;;;;;9.15;3.60;;;;;;;;;;5053862;28;20318;-77